createdAt,value
2023-05-09T00:00:10.975Z,4.97
2023-05-09T00:02:39.236Z,4.18
2023-05-09T00:05:07.838Z,4.53
2023-05-09T00:07:34.674Z,4.60
2023-05-09T00:10:01.551Z,4.40
2023-05-09T00:12:28.724Z,4.22
2023-05-09T00:14:56.741Z,4.78
2023-05-09T00:17:24.374Z,4.45
2023-05-09T00:19:53.003Z,3.90
2023-05-09T00:22:23.624Z,4.70
2023-05-09T00:24:50.720Z,5.07
2023-05-09T00:27:18.452Z,4.75
2023-05-09T00:29:45.491Z,4.60
2023-05-09T00:32:12.489Z,4.18
2023-05-09T00:34:39.377Z,4.85
2023-05-09T00:37:07.068Z,4.20
2023-05-09T00:39:33.921Z,4.50
2023-05-09T00:42:00.902Z,4.45
2023-05-09T00:44:27.720Z,4.88
2023-05-09T00:46:54.706Z,4.72
2023-05-09T00:49:21.938Z,4.50
2023-05-09T00:51:49.327Z,4.88
2023-05-09T00:54:16.282Z,4.38
2023-05-09T00:56:43.175Z,4.05
2023-05-09T00:59:10.218Z,4.45
2023-05-09T01:01:37.114Z,4.25
2023-05-09T01:04:04.482Z,4.30
2023-05-09T01:06:41.179Z,4.55
2023-05-09T01:09:08.037Z,4.72
2023-05-09T01:12:00.602Z,4.22
2023-05-09T01:14:38.111Z,3.83
2023-05-09T01:17:27.912Z,4.50
2023-05-09T01:20:10.660Z,4.50
2023-05-09T01:22:43.403Z,4.72
2023-05-09T01:25:50.845Z,4.45
2023-05-09T01:28:38.043Z,4.25
2023-05-09T01:31:08.423Z,4.43
2023-05-09T01:33:38.760Z,4.28
2023-05-09T01:36:12.236Z,4.57
2023-05-09T01:38:40.808Z,4.47
2023-05-09T01:41:10.907Z,4.32
2023-05-09T01:43:40.317Z,4.45
2023-05-09T01:46:08.356Z,4.55
2023-05-09T01:48:37.795Z,4.25
2023-05-09T01:51:07.323Z,4.13
2023-05-09T01:53:35.241Z,4.53
2023-05-09T01:56:04.333Z,4.25
2023-05-09T01:58:33.698Z,4.80
2023-05-09T02:01:01.537Z,4.50
2023-05-09T02:03:28.840Z,5.22
2023-05-09T02:05:56.756Z,4.30
2023-05-09T02:08:24.200Z,4.68
2023-05-09T02:10:51.404Z,4.72
2023-05-09T02:13:18.524Z,4.57
2023-05-09T02:15:46.664Z,4.25
2023-05-09T02:18:17.367Z,4.82
2023-05-09T02:20:44.391Z,4.35
2023-05-09T02:23:12.002Z,4.90
2023-05-09T02:25:41.262Z,4.50
2023-05-09T02:28:10.057Z,4.78
2023-05-09T02:30:43.032Z,4.65
2023-05-09T02:33:12.412Z,4.35
2023-05-09T02:35:42.451Z,5.18
2023-05-09T02:38:09.445Z,5.07
2023-05-09T02:40:36.500Z,4.50
2023-05-09T02:43:04.065Z,4.78
2023-05-09T02:45:32.038Z,4.90
2023-05-09T02:47:59.189Z,4.57
2023-05-09T02:50:26.801Z,4.63
2023-05-09T02:52:53.724Z,4.63
2023-05-09T02:55:20.633Z,4.57
2023-05-09T02:57:47.536Z,5.30
2023-05-09T03:00:15.061Z,4.85
2023-05-09T03:02:42.079Z,4.55
2023-05-09T03:05:15.391Z,4.72
2023-05-09T03:07:42.551Z,4.50
2023-05-09T03:10:11.461Z,5.43
2023-05-09T03:12:39.381Z,4.95
2023-05-09T03:15:07.637Z,5.45
2023-05-09T03:17:35.498Z,5.22
2023-05-09T03:20:05.509Z,4.53
2023-05-09T03:22:32.423Z,4.47
2023-05-09T03:25:03.224Z,4.80
2023-05-09T03:27:30.081Z,5.05
2023-05-09T03:29:56.943Z,5.38
2023-05-09T03:32:24.013Z,5.22
2023-05-09T03:34:50.958Z,4.47
2023-05-09T03:37:17.869Z,4.50
2023-05-09T03:39:45.115Z,4.68
2023-05-09T03:42:11.954Z,4.90
2023-05-09T03:44:40.475Z,5.07
2023-05-09T03:47:07.449Z,4.70
2023-05-09T03:49:38.501Z,4.88
2023-05-09T03:52:05.974Z,4.93
2023-05-09T03:54:33.833Z,4.75
2023-05-09T03:57:01.197Z,4.72
2023-05-09T03:59:28.304Z,4.70
2023-05-09T04:01:55.977Z,4.22
2023-05-09T04:04:26.014Z,4.97
2023-05-09T04:06:53.000Z,4.43
2023-05-09T04:09:20.118Z,4.68
2023-05-09T04:11:47.906Z,4.90
2023-05-09T04:14:15.831Z,4.88
2023-05-09T04:16:42.706Z,4.43
2023-05-09T04:19:09.773Z,4.63
2023-05-09T04:21:36.745Z,4.38
2023-05-09T04:24:04.774Z,4.00
2023-05-09T04:26:46.738Z,4.28
2023-05-09T04:29:16.934Z,4.70
2023-05-09T04:31:49.583Z,4.00
2023-05-09T04:34:16.659Z,4.25
2023-05-09T04:36:43.514Z,4.07
2023-05-09T04:39:10.792Z,4.15
2023-05-09T04:41:40.659Z,3.88
2023-05-09T04:44:07.982Z,4.03
2023-05-09T04:46:34.897Z,4.20
2023-05-09T04:49:02.734Z,3.70
2023-05-09T04:51:29.584Z,4.15
2023-05-09T04:53:56.432Z,4.10
2023-05-09T04:56:28.867Z,4.05
2023-05-09T04:58:55.741Z,4.10
2023-05-09T05:01:22.782Z,3.78
2023-05-09T05:03:50.690Z,3.45
2023-05-09T05:06:17.558Z,3.10
2023-05-09T05:08:44.978Z,3.58
2023-05-09T05:11:11.916Z,3.85
2023-05-09T05:13:39.159Z,3.70
2023-05-09T05:16:06.228Z,3.45
2023-05-09T05:18:33.430Z,3.30
2023-05-09T05:21:00.434Z,3.63
2023-05-09T05:23:27.495Z,3.30
2023-05-09T05:25:55.598Z,3.15
2023-05-09T05:28:23.559Z,3.03
2023-05-09T05:30:50.740Z,3.33
2023-05-09T05:33:17.600Z,3.05
2023-05-09T05:35:44.559Z,3.30
2023-05-09T05:38:11.380Z,2.97
2023-05-09T05:40:38.961Z,3.00
2023-05-09T05:43:06.900Z,2.75
2023-05-09T05:45:35.972Z,3.10
2023-05-09T05:48:05.620Z,3.20
2023-05-09T05:50:32.944Z,3.00
2023-05-09T05:52:59.916Z,3.13
2023-05-09T05:55:27.077Z,3.08
2023-05-09T05:57:54.133Z,3.13
2023-05-09T06:00:21.143Z,3.17
2023-05-09T06:02:54.790Z,3.60
2023-05-09T06:05:44.767Z,3.05
2023-05-09T06:08:12.875Z,3.13
2023-05-09T06:10:39.749Z,2.97
2023-05-09T06:13:06.592Z,2.80
2023-05-09T06:15:34.642Z,2.88
2023-05-09T06:18:01.974Z,3.15
2023-05-09T06:20:29.055Z,3.17
2023-05-09T06:22:55.966Z,3.00
2023-05-09T06:25:22.808Z,3.40
2023-05-09T06:27:49.637Z,3.53
2023-05-09T06:30:25.311Z,2.92
2023-05-09T06:32:52.960Z,3.00
2023-05-09T06:35:19.966Z,3.38
2023-05-09T06:37:49.147Z,3.55
2023-05-09T06:40:17.100Z,3.65
2023-05-09T06:42:44.535Z,3.95
2023-05-09T06:45:11.849Z,3.67
2023-05-09T06:47:38.939Z,3.20
2023-05-09T06:50:06.427Z,3.65
2023-05-09T06:52:33.335Z,4.13
2023-05-09T06:55:00.259Z,4.28
2023-05-09T06:57:27.257Z,4.40
2023-05-09T06:59:54.075Z,4.82
2023-05-09T07:02:20.855Z,4.50
2023-05-09T07:04:47.770Z,4.50
2023-05-09T07:07:14.652Z,4.72
2023-05-09T07:09:41.572Z,4.63
2023-05-09T07:12:08.568Z,4.30
2023-05-09T07:14:35.760Z,4.72
2023-05-09T07:17:18.230Z,3.92
2023-05-09T07:19:49.325Z,4.88
2023-05-09T07:22:16.342Z,5.10
2023-05-09T07:24:44.514Z,4.35
2023-05-09T07:27:11.460Z,4.40
2023-05-09T07:29:38.442Z,5.30
2023-05-09T07:32:05.579Z,4.90
2023-05-09T07:34:32.494Z,4.95
2023-05-09T07:36:59.428Z,4.47
2023-05-09T07:39:26.487Z,4.50
2023-05-09T07:41:53.302Z,5.50
2023-05-09T07:44:20.250Z,4.85
2023-05-09T07:46:47.083Z,4.93
2023-05-09T07:49:13.925Z,4.70
2023-05-09T07:51:41.387Z,4.20
2023-05-09T07:54:09.988Z,5.13
2023-05-09T07:56:37.020Z,4.20
2023-05-09T07:59:03.970Z,4.35
2023-05-09T08:01:31.052Z,4.40
2023-05-09T08:03:58.112Z,3.80
2023-05-09T08:06:26.401Z,4.43
2023-05-09T08:08:53.249Z,3.90
2023-05-09T08:11:20.181Z,3.55
2023-05-09T08:13:48.244Z,4.00
2023-05-09T08:16:17.438Z,4.00
2023-05-09T08:18:44.774Z,3.60
2023-05-09T08:21:11.714Z,3.38
2023-05-09T08:23:38.740Z,3.88
2023-05-09T08:26:05.741Z,3.83
2023-05-09T08:28:32.553Z,3.08
2023-05-09T08:30:59.435Z,3.55
2023-05-09T08:33:26.418Z,3.60
2023-05-09T08:35:53.824Z,3.40
2023-05-09T08:38:20.870Z,3.08
2023-05-09T08:40:47.881Z,2.92
2023-05-09T08:43:18.236Z,3.00
2023-05-09T08:45:53.615Z,3.08
2023-05-09T08:48:22.556Z,2.97
2023-05-09T08:50:49.815Z,2.60
2023-05-09T08:53:17.421Z,2.63
2023-05-09T08:55:44.874Z,2.60
2023-05-09T08:58:13.812Z,2.90
2023-05-09T09:00:41.901Z,3.05
2023-05-09T09:03:09.994Z,2.47
2023-05-09T09:05:41.964Z,2.75
2023-05-09T09:08:10.848Z,2.70
2023-05-09T09:10:43.381Z,2.67
2023-05-09T09:13:12.471Z,2.58
2023-05-09T09:15:43.096Z,2.40
2023-05-09T09:18:23.373Z,2.75
2023-05-09T09:21:10.383Z,2.70
2023-05-09T09:23:41.283Z,2.35
2023-05-09T09:26:08.137Z,2.50
2023-05-09T09:28:35.774Z,2.40
2023-05-09T09:31:02.663Z,2.25
2023-05-09T09:33:29.784Z,2.20
2023-05-09T09:35:57.430Z,2.03
2023-05-09T09:38:25.262Z,2.13
2023-05-09T09:40:52.111Z,2.00
2023-05-09T09:43:19.140Z,2.33
2023-05-09T09:45:50.627Z,2.08
2023-05-09T09:48:17.602Z,2.20
2023-05-09T09:50:47.232Z,1.80
2023-05-09T09:53:14.369Z,1.80
2023-05-09T09:55:50.105Z,2.20
2023-05-09T09:58:18.323Z,2.03
2023-05-09T10:00:46.264Z,1.75
2023-05-09T10:03:17.434Z,2.35
2023-05-09T10:05:45.135Z,1.92
2023-05-09T10:08:12.789Z,2.00
2023-05-09T10:10:39.727Z,2.03
2023-05-09T10:13:10.097Z,2.00
2023-05-09T10:15:49.440Z,2.17
2023-05-09T10:18:25.304Z,1.60
2023-05-09T10:20:53.693Z,1.77
2023-05-09T10:23:22.783Z,1.90
2023-05-09T10:25:58.670Z,1.67
2023-05-09T10:28:32.344Z,2.15
2023-05-09T10:31:10.229Z,1.80
2023-05-09T10:33:43.518Z,1.88
2023-05-09T10:36:10.888Z,1.60
2023-05-09T10:38:38.302Z,1.60
2023-05-09T10:41:05.629Z,1.90
2023-05-09T10:43:34.813Z,1.80
2023-05-09T10:46:05.188Z,1.80
2023-05-09T10:48:33.696Z,1.75
2023-05-09T10:51:02.394Z,1.48
2023-05-09T10:53:44.343Z,1.48
2023-05-09T10:56:31.948Z,1.88
2023-05-09T10:59:00.284Z,1.70
2023-05-09T11:01:36.981Z,1.60
2023-05-09T11:04:16.629Z,1.70
2023-05-09T11:06:52.227Z,1.80
2023-05-09T11:09:35.404Z,1.88
2023-05-09T11:12:05.487Z,1.73
2023-05-09T11:14:39.826Z,1.92
2023-05-09T11:17:08.755Z,1.98
2023-05-09T11:19:47.861Z,1.60
2023-05-09T11:22:26.282Z,1.50
2023-05-09T11:24:59.561Z,1.30
2023-05-09T11:27:31.048Z,1.55
2023-05-09T11:30:06.032Z,1.35
2023-05-09T11:32:34.595Z,1.17
2023-05-09T11:35:10.105Z,1.48
2023-05-09T11:38:09.494Z,1.50
2023-05-09T11:40:37.363Z,1.42
2023-05-09T11:43:04.400Z,1.70
2023-05-09T11:45:33.300Z,1.42
2023-05-09T11:48:01.226Z,1.30
2023-05-09T11:50:29.352Z,1.58
2023-05-09T11:52:56.256Z,1.38
2023-05-09T11:55:23.299Z,1.13
2023-05-09T11:57:54.522Z,1.30
2023-05-09T12:00:24.322Z,1.27
2023-05-09T12:02:52.708Z,1.50
2023-05-09T12:05:21.881Z,1.50
2023-05-09T12:07:49.121Z,1.50
2023-05-09T12:10:20.947Z,1.10
2023-05-09T12:12:52.182Z,1.25
2023-05-09T12:15:19.799Z,1.13
2023-05-09T12:17:49.584Z,1.17
2023-05-09T12:20:18.211Z,1.23
2023-05-09T12:22:45.282Z,1.00
2023-05-09T12:25:12.545Z,0.95
2023-05-09T12:27:41.286Z,1.13
2023-05-09T12:30:10.375Z,0.98
2023-05-09T12:32:40.384Z,1.10
2023-05-09T12:35:10.501Z,1.20
2023-05-09T12:37:37.884Z,1.00
2023-05-09T12:40:05.123Z,1.02
2023-05-09T12:42:33.047Z,1.20
2023-05-09T12:45:01.889Z,1.10
2023-05-09T12:47:31.333Z,1.05
2023-05-09T12:50:03.186Z,1.17
2023-05-09T12:52:50.203Z,1.13
2023-05-09T12:55:25.672Z,1.15
2023-05-09T12:58:03.506Z,1.27
2023-05-09T13:00:45.434Z,0.90
2023-05-09T13:03:22.522Z,0.95
2023-05-09T13:06:01.270Z,1.10
2023-05-09T13:08:29.421Z,0.90
2023-05-09T13:11:07.895Z,1.00
2023-05-09T13:13:42.562Z,1.00
2023-05-09T13:16:11.237Z,1.00
2023-05-09T13:18:39.575Z,1.38
2023-05-09T13:21:06.414Z,0.90
2023-05-09T13:23:33.267Z,0.90
2023-05-09T13:26:00.176Z,1.10
2023-05-09T13:28:27.025Z,0.75
2023-05-09T13:30:53.877Z,0.93
2023-05-09T13:35:51.231Z,1.10
2023-05-09T13:38:18.053Z,0.85
2023-05-09T13:40:44.893Z,1.10
2023-05-09T13:43:11.808Z,1.15
2023-05-09T13:45:38.634Z,1.10
2023-05-09T13:48:05.765Z,1.10
2023-05-09T13:50:32.632Z,1.33
2023-05-09T13:52:59.481Z,1.02
2023-05-09T13:55:27.567Z,1.30
2023-05-09T13:57:54.821Z,1.20
2023-05-09T14:00:22.295Z,1.40
2023-05-09T14:02:49.315Z,1.33
2023-05-09T14:05:16.938Z,1.08
2023-05-09T14:07:45.025Z,1.27
2023-05-09T14:10:12.571Z,1.10
2023-05-09T14:12:40.585Z,1.10
2023-05-09T14:15:08.612Z,1.65
2023-05-09T14:17:35.557Z,1.58
2023-05-09T14:20:02.660Z,1.67
2023-05-09T14:22:29.493Z,1.17
2023-05-09T14:24:59.234Z,1.45
2023-05-09T14:27:26.214Z,1.20
2023-05-09T14:29:53.336Z,1.20
2023-05-09T14:32:20.991Z,1.10
2023-05-09T14:34:49.668Z,1.00
2023-05-09T14:37:16.932Z,0.88
2023-05-09T14:39:45.306Z,0.80
2023-05-09T14:42:14.034Z,1.30
2023-05-09T14:44:41.613Z,1.10
2023-05-09T14:47:12.143Z,1.40
2023-05-09T14:49:40.032Z,1.50
2023-05-09T14:52:07.143Z,1.75
2023-05-09T14:54:34.811Z,1.50
2023-05-09T14:57:04.462Z,1.52
2023-05-09T14:59:31.421Z,1.52
2023-05-09T15:01:58.433Z,1.20
2023-05-09T15:04:28.369Z,1.30
2023-05-09T15:06:55.353Z,1.00
2023-05-09T15:09:22.913Z,1.40
2023-05-09T15:11:49.948Z,1.30
2023-05-09T15:14:17.105Z,0.90
2023-05-09T15:16:44.192Z,1.23
2023-05-09T15:19:11.309Z,1.17
2023-05-09T15:21:38.286Z,1.20
2023-05-09T15:24:05.519Z,0.85
2023-05-09T15:26:32.554Z,0.90
2023-05-09T15:28:59.616Z,1.33
2023-05-09T15:31:26.683Z,1.10
2023-05-09T15:33:53.614Z,1.40
2023-05-09T15:36:20.438Z,1.00
2023-05-09T15:38:49.499Z,1.33
2023-05-09T15:41:17.052Z,1.15
2023-05-09T15:43:44.094Z,0.98
2023-05-09T15:46:11.082Z,0.90
2023-05-09T15:48:38.065Z,1.20
2023-05-09T15:51:05.171Z,0.98
2023-05-09T15:53:32.040Z,1.25
2023-05-09T15:55:58.887Z,1.55
2023-05-09T15:58:25.808Z,1.95
2023-05-09T16:00:52.750Z,2.10
2023-05-09T16:03:19.877Z,2.20
2023-05-09T16:05:46.931Z,3.30
2023-05-09T16:08:14.436Z,6.22
2023-05-09T16:10:41.316Z,6.35
2023-05-09T16:13:08.336Z,6.38
2023-05-09T16:15:35.460Z,6.00
2023-05-09T16:18:02.409Z,7.15
2023-05-09T16:20:29.298Z,6.80
2023-05-09T16:22:56.153Z,6.95
2023-05-09T16:25:23.016Z,6.32
2023-05-09T16:27:49.892Z,6.50
2023-05-09T16:30:17.190Z,5.20
2023-05-09T16:32:44.754Z,4.85
2023-05-09T16:35:12.511Z,4.57
2023-05-09T16:37:39.381Z,3.42
2023-05-09T16:40:06.772Z,5.25
2023-05-09T16:42:33.757Z,3.35
2023-05-09T16:45:00.551Z,3.42
2023-05-09T16:47:27.366Z,2.60
2023-05-09T16:49:54.273Z,2.38
2023-05-09T16:52:23.067Z,2.58
2023-05-09T16:54:50.472Z,2.50
2023-05-09T16:57:17.333Z,2.33
2023-05-09T16:59:44.151Z,2.28
2023-05-09T17:02:11.106Z,2.58
2023-05-09T17:04:38.293Z,2.35
2023-05-09T17:07:05.159Z,2.00
2023-05-09T17:09:32.410Z,2.53
2023-05-09T17:12:00.566Z,1.48
2023-05-09T17:14:27.522Z,1.83
2023-05-09T17:16:54.475Z,1.30
2023-05-09T17:19:23.468Z,1.30
2023-05-09T17:21:50.727Z,1.30
2023-05-09T17:24:17.845Z,1.10
2023-05-09T17:26:44.716Z,1.10
2023-05-09T17:29:11.713Z,1.20
2023-05-09T17:31:38.650Z,1.10
2023-05-09T17:34:05.787Z,1.58
2023-05-09T17:36:33.779Z,1.20
2023-05-09T17:39:00.899Z,1.40
2023-05-09T17:41:27.976Z,1.25
2023-05-09T17:43:57.363Z,0.95
2023-05-09T17:46:24.904Z,1.20
2023-05-09T17:48:51.883Z,1.23
2023-05-09T17:51:18.854Z,1.30
2023-05-09T17:53:46.768Z,1.13
2023-05-09T17:56:13.748Z,1.10
2023-05-09T17:58:40.660Z,1.52
2023-05-09T18:01:07.610Z,1.20
2023-05-09T18:03:34.687Z,0.90
2023-05-09T18:06:01.837Z,1.10
2023-05-09T18:08:29.797Z,1.00
2023-05-09T18:10:57.675Z,1.10
2023-05-09T18:13:24.811Z,1.20
2023-05-09T18:15:53.953Z,1.00
2023-05-09T18:18:22.278Z,1.25
2023-05-09T18:20:49.334Z,0.98
2023-05-09T18:23:16.219Z,1.00
2023-05-09T18:25:43.111Z,0.90
2023-05-09T18:28:10.993Z,0.93
2023-05-09T18:30:38.929Z,1.17
2023-05-09T18:33:05.938Z,1.10
2023-05-09T18:35:32.985Z,1.00
2023-05-09T18:37:59.877Z,1.00
2023-05-09T18:40:27.103Z,1.00
2023-05-09T18:42:53.912Z,0.90
2023-05-09T18:45:20.765Z,0.90
2023-05-09T18:47:47.619Z,1.08
2023-05-09T18:50:15.006Z,0.95
2023-05-09T18:52:44.275Z,0.82
2023-05-09T18:55:11.426Z,0.80
2023-05-09T18:57:38.278Z,0.70
2023-05-09T19:00:05.589Z,0.60
2023-05-09T19:02:32.473Z,0.90
2023-05-09T19:05:00.789Z,0.80
2023-05-09T19:07:27.733Z,0.88
2023-05-09T19:09:54.577Z,0.93
2023-05-09T19:12:21.470Z,0.65
2023-05-09T19:14:48.310Z,0.80
2023-05-09T19:17:15.119Z,0.70
2023-05-09T19:19:41.984Z,0.60
2023-05-09T19:22:08.782Z,0.60
2023-05-09T19:24:35.985Z,0.50
2023-05-09T19:27:04.031Z,0.73
2023-05-09T19:29:30.914Z,0.52
2023-05-09T19:31:58.210Z,0.75
2023-05-09T19:34:25.654Z,0.50
2023-05-09T19:36:52.526Z,0.73
2023-05-09T19:39:19.399Z,0.52
2023-05-09T19:41:46.291Z,0.60
2023-05-09T19:44:13.144Z,0.80
2023-05-09T19:46:43.004Z,0.60
2023-05-09T19:49:10.638Z,0.40
2023-05-09T19:51:37.646Z,0.75
2023-05-09T19:54:05.006Z,0.60
2023-05-09T19:56:31.817Z,0.57
2023-05-09T19:58:59.630Z,0.70
2023-05-09T20:01:26.750Z,0.60
2023-05-09T20:03:53.787Z,0.70
2023-05-09T20:06:20.900Z,0.70
2023-05-09T20:08:47.899Z,0.52
2023-05-09T20:11:14.863Z,0.88
2023-05-09T20:13:43.057Z,0.60
2023-05-09T20:16:10.072Z,0.60
2023-05-09T20:18:37.221Z,0.63
2023-05-09T20:21:05.630Z,0.60
2023-05-09T20:23:32.595Z,0.47
2023-05-09T20:25:59.573Z,0.50
2023-05-09T20:28:26.464Z,0.70
2023-05-09T20:30:53.506Z,0.80
2023-05-09T20:33:20.446Z,0.60
2023-05-09T20:35:49.166Z,0.50
2023-05-09T20:38:16.101Z,0.70
2023-05-09T20:40:43.492Z,0.60
2023-05-09T20:43:10.441Z,0.65
2023-05-09T20:45:37.463Z,0.47
2023-05-09T20:48:05.667Z,0.50
2023-05-09T20:50:32.709Z,0.60
2023-05-09T20:52:59.719Z,0.70
2023-05-09T20:55:26.636Z,0.50
2023-05-09T20:57:53.593Z,0.50
2023-05-09T21:00:20.833Z,0.65
2023-05-09T21:02:47.837Z,0.70
2023-05-09T21:05:14.879Z,0.57
2023-05-09T21:07:41.829Z,0.50
2023-05-09T21:10:10.361Z,0.40
2023-05-09T21:12:37.361Z,0.50
2023-05-09T21:15:04.650Z,0.65
2023-05-09T21:17:31.690Z,0.47
2023-05-09T21:19:58.643Z,0.45
2023-05-09T21:22:25.649Z,0.47
2023-05-09T21:24:53.073Z,0.50
2023-05-09T21:27:19.986Z,0.30
2023-05-09T21:29:49.271Z,0.40
2023-05-09T21:32:16.976Z,0.40
2023-05-09T21:34:43.938Z,0.40
2023-05-09T21:37:10.874Z,0.50
2023-05-09T21:39:37.793Z,0.40
2023-05-09T21:42:04.823Z,0.40
2023-05-09T21:44:31.759Z,0.50
2023-05-09T21:46:59.463Z,0.40
2023-05-09T21:49:28.751Z,0.40
2023-05-09T21:51:55.699Z,0.52
2023-05-09T21:54:23.271Z,0.40
2023-05-09T21:56:50.306Z,0.40
2023-05-09T21:59:20.682Z,0.43
2023-05-09T22:01:47.771Z,0.40
2023-05-09T22:04:15.317Z,0.40
2023-05-09T22:06:42.817Z,0.40
2023-05-09T22:09:10.366Z,0.47
2023-05-09T22:11:37.688Z,0.50
2023-05-09T22:14:04.559Z,0.40
2023-05-09T22:16:31.438Z,0.57
2023-05-09T22:18:58.453Z,0.50
2023-05-09T22:21:25.463Z,0.38
2023-05-09T22:23:52.485Z,0.40
2023-05-09T22:26:19.427Z,0.30
2023-05-09T22:28:46.251Z,0.50
2023-05-09T22:31:13.061Z,0.38
2023-05-09T22:33:40.517Z,0.50
2023-05-09T22:36:09.165Z,0.43
2023-05-09T22:38:35.983Z,0.60
2023-05-09T22:41:02.885Z,0.50
2023-05-09T22:43:38.752Z,0.43
2023-05-09T22:46:06.472Z,0.50
2023-05-09T22:48:33.396Z,0.30
2023-05-09T22:51:00.276Z,0.40
2023-05-09T22:53:28.131Z,0.50
2023-05-09T22:55:55.281Z,0.52
2023-05-09T22:58:22.571Z,0.43
2023-05-09T23:00:49.623Z,0.60
2023-05-09T23:03:16.642Z,0.40
2023-05-09T23:05:43.745Z,0.70
2023-05-09T23:08:10.697Z,0.40
2023-05-09T23:10:37.526Z,0.52
2023-05-09T23:13:04.837Z,0.50
2023-05-09T23:15:31.810Z,0.47
2023-05-09T23:17:58.826Z,0.47
2023-05-09T23:20:51.803Z,0.50
2023-05-09T23:23:18.599Z,0.50
2023-05-09T23:25:45.562Z,0.60
2023-05-09T23:28:12.475Z,0.45
2023-05-09T23:30:39.297Z,0.50
2023-05-09T23:33:06.240Z,0.45
2023-05-09T23:35:33.114Z,0.63
2023-05-09T23:38:00.413Z,0.50
2023-05-09T23:40:27.246Z,0.50
2023-05-09T23:42:54.085Z,0.55
2023-05-09T23:45:21.011Z,0.50
2023-05-09T23:47:47.878Z,0.50
2023-05-09T23:50:14.937Z,0.60
2023-05-09T23:52:42.371Z,0.60
2023-05-09T23:55:09.728Z,0.70
2023-05-09T23:57:36.569Z,0.70
